Time,TemperatureF,DewpointF,PressureIn,WindDirection,WindDirectionDegrees,WindSpeedMPH,WindSpeedGustMPH,Humidity,HourlyPrecipIn,Conditions,Clouds,dailyrainin,SoftwareType,DateUTC
2013-01-17 00:00:00,61.9,57.7,29.49,NNW,337,0.0,0.0,86,0.00,,,0.00,WUHU21623XXSP,2013-01-17 05:00:00,
2013-01-17 00:01:00,61.9,57.7,29.49,NNW,337,0.0,0.0,86,0.00,,,0.00,WUHU21623XXSP,2013-01-17 05:01:00,
2013-01-17 00:06:00,61.9,57.7,29.50,NNW,337,0.0,0.0,86,0.00,,,0.00,WUHU21623XXSP,2013-01-17 05:06:00,
2013-01-17 00:11:00,61.7,57.5,29.49,NNW,337,0.0,0.0,86,0.00,,,0.00,WUHU21623XXSP,2013-01-17 05:11:00,
2013-01-17 00:16:00,61.7,57.5,29.49,NNW,337,0.0,0.0,86,0.00,,,0.00,WUHU21623XXSP,2013-01-17 05:16:00,
2013-01-17 00:21:00,61.7,57.5,29.50,NNW,337,0.0,0.0,86,0.00,,,0.00,WUHU21623XXSP,2013-01-17 05:21:00,
2013-01-17 00:26:00,61.7,57.1,29.50,NNW,337,0.0,0.0,85,0.00,,,0.00,WUHU21623XXSP,2013-01-17 05:26:00,
2013-01-17 00:31:00,61.5,57.0,29.49,NNW,337,0.0,0.0,85,0.00,,,0.00,WUHU21623XXSP,2013-01-17 05:31:00,
2013-01-17 00:36:00,61.5,57.0,29.50,NNW,337,0.0,0.0,85,0.00,,,0.00,WUHU21623XXSP,2013-01-17 05:36:00,
2013-01-17 00:41:00,61.5,57.0,29.50,NNW,337,0.0,0.0,85,0.00,,,0.00,WUHU21623XXSP,2013-01-17 05:41:00,
2013-01-17 00:46:00,61.5,57.0,29.51,NNW,337,0.0,0.0,85,0.00,,,0.00,WUHU21623XXSP,2013-01-17 05:46:00,
2013-01-17 00:51:00,61.3,56.8,29.50,NNW,337,0.0,0.0,85,0.00,,,0.00,WUHU21623XXSP,2013-01-17 05:51:00,
2013-01-17 00:56:00,61.2,56.6,29.50,NNW,337,0.0,0.0,85,0.00,,,0.00,WUHU21623XXSP,2013-01-17 05:56:00,
2013-01-17 01:01:00,61.0,56.5,29.50,NNW,337,0.0,0.0,85,0.00,,,0.00,WUHU21623XXSP,2013-01-17 06:01:00,
2013-01-17 01:06:00,61.0,56.5,29.50,NNW,337,0.0,0.0,85,0.00,,,0.00,WUHU21623XXSP,2013-01-17 06:06:00,
2013-01-17 01:12:00,61.0,56.5,29.50,NNW,337,0.0,0.0,85,0.00,,,0.00,WUHU21623XXSP,2013-01-17 06:12:00,
2013-01-17 01:17:00,61.0,56.5,29.49,NNW,337,0.0,0.0,85,0.00,,,0.00,WUHU21623XXSP,2013-01-17 06:17:00,
2013-01-17 01:22:00,61.0,56.5,29.49,NNW,337,0.0,0.0,85,0.00,,,0.00,WUHU21623XXSP,2013-01-17 06:22:00,
2013-01-17 01:27:00,61.0,56.5,29.49,NNW,337,0.0,0.0,85,0.00,,,0.00,WUHU21623XXSP,2013-01-17 06:27:00,
2013-01-17 01:32:00,61.0,56.5,29.49,NNW,337,0.0,0.0,85,0.00,,,0.00,WUHU21623XXSP,2013-01-17 06:32:00,
2013-01-17 01:37:00,61.2,56.6,29.49,NNW,337,0.0,0.0,85,0.00,,,0.00,WUHU21623XXSP,2013-01-17 06:37:00,
2013-01-17 01:42:00,61.2,56.6,29.49,NNW,337,0.0,0.0,85,0.00,,,0.00,WUHU21623XXSP,2013-01-17 06:42:00,
2013-01-17 01:47:00,61.3,56.8,29.49,NNW,337,0.0,0.0,85,0.00,,,0.00,WUHU21623XXSP,2013-01-17 06:47:00,
2013-01-17 01:52:00,61.3,56.8,29.49,NNW,337,0.0,0.0,85,0.00,,,0.00,WUHU21623XXSP,2013-01-17 06:52:00,
2013-01-17 01:57:00,61.5,56.6,29.49,NNW,337,0.0,0.0,84,0.00,,,0.00,WUHU21623XXSP,2013-01-17 06:57:00,
2013-01-17 02:02:00,61.5,56.6,29.49,NNW,337,0.0,0.0,84,0.00,,,0.00,WUHU21623XXSP,2013-01-17 07:02:00,
2013-01-17 02:07:00,61.5,56.6,29.49,NNW,337,0.0,0.0,84,0.00,,,0.00,WUHU21623XXSP,2013-01-17 07:07:00,
2013-01-17 02:12:00,61.7,56.8,29.49,NNW,337,0.0,0.0,84,0.00,,,0.00,WUHU21623XXSP,2013-01-17 07:12:00,
2013-01-17 02:17:00,61.7,56.8,29.49,NNW,337,0.0,0.0,84,0.00,,,0.00,WUHU21623XXSP,2013-01-17 07:17:00,
2013-01-17 02:22:00,61.9,57.0,29.49,NNW,337,0.0,0.0,84,0.00,,,0.00,WUHU21623XXSP,2013-01-17 07:22:00,
2013-01-17 02:27:00,61.9,57.0,29.49,NNW,337,0.0,0.0,84,0.00,,,0.00,WUHU21623XXSP,2013-01-17 07:27:00,
2013-01-17 02:32:00,62.1,57.1,29.48,NNW,337,0.0,0.0,84,0.00,,,0.00,WUHU21623XXSP,2013-01-17 07:32:00,
2013-01-17 02:37:00,62.1,57.1,29.49,NNW,337,0.0,0.0,84,0.00,,,0.00,WUHU21623XXSP,2013-01-17 07:37:00,
2013-01-17 02:42:00,62.1,57.1,29.48,NNW,337,0.0,0.0,84,0.00,,,0.00,WUHU21623XXSP,2013-01-17 07:42:00,
2013-01-17 02:47:00,62.2,57.3,29.47,NNW,337,0.0,0.0,84,0.00,,,0.00,WUHU21623XXSP,2013-01-17 07:47:00,
2013-01-17 02:52:00,62.2,57.3,29.47,NNW,337,0.0,0.0,84,0.00,,,0.00,WUHU21623XXSP,2013-01-17 07:52:00,
2013-01-17 02:57:00,62.2,57.3,29.48,NNW,337,0.0,0.0,84,0.00,,,0.00,WUHU21623XXSP,2013-01-17 07:57:00,
2013-01-17 03:02:00,62.2,57.3,29.48,NNW,337,0.0,0.0,84,0.00,,,0.00,WUHU21623XXSP,2013-01-17 08:02:00,
2013-01-17 03:07:00,62.2,57.3,29.48,NNW,337,0.0,0.0,84,0.00,,,0.00,WUHU21623XXSP,2013-01-17 08:07:00,
2013-01-17 03:12:00,62.2,57.3,29.48,NNW,337,0.0,0.0,84,0.00,,,0.00,WUHU21623XXSP,2013-01-17 08:12:00,
2013-01-17 03:17:00,62.2,57.3,29.47,NNW,337,0.0,0.0,84,0.00,,,0.00,WUHU21623XXSP,2013-01-17 08:17:00,
2013-01-17 03:22:00,62.4,57.5,29.47,NNW,337,0.0,0.0,84,0.00,,,0.00,WUHU21623XXSP,2013-01-17 08:22:00,
2013-01-17 03:27:00,62.4,57.5,29.47,NNW,337,0.0,0.0,84,0.00,,,0.00,WUHU21623XXSP,2013-01-17 08:27:00,
2013-01-17 03:32:00,62.4,57.5,29.47,NNW,337,0.0,0.0,84,0.00,,,0.00,WUHU21623XXSP,2013-01-17 08:32:00,
2013-01-17 03:37:00,62.4,57.5,29.47,NNW,337,0.0,0.0,84,0.00,,,0.00,WUHU21623XXSP,2013-01-17 08:37:00,
2013-01-17 03:42:00,62.4,57.5,29.47,NNW,337,0.0,0.0,84,0.00,,,0.00,WUHU21623XXSP,2013-01-17 08:42:00,
2013-01-17 03:47:00,62.4,57.5,29.46,NNW,337,0.0,0.0,84,0.00,,,0.00,WUHU21623XXSP,2013-01-17 08:47:00,
2013-01-17 03:52:00,62.4,57.5,29.46,NNW,337,0.0,0.0,84,0.00,,,0.00,WUHU21623XXSP,2013-01-17 08:52:00,
2013-01-17 03:57:00,62.4,57.5,29.46,NNW,337,0.0,0.0,84,0.00,,,0.00,WUHU21623XXSP,2013-01-17 08:57:00,
2013-01-17 04:02:00,62.6,57.7,29.46,NNW,337,0.0,0.0,84,0.00,,,0.00,WUHU21623XXSP,2013-01-17 09:02:00,
2013-01-17 04:07:00,62.6,57.3,29.46,NNW,337,0.0,0.0,83,0.00,,,0.00,WUHU21623XXSP,2013-01-17 09:07:00,
2013-01-17 04:12:00,62.8,57.5,29.46,NNW,337,0.0,0.0,83,0.00,,,0.00,WUHU21623XXSP,2013-01-17 09:12:00,
2013-01-17 04:17:00,62.8,57.5,29.46,NNW,337,0.0,0.0,83,0.00,,,0.00,WUHU21623XXSP,2013-01-17 09:17:00,
2013-01-17 04:22:00,62.8,57.5,29.46,NNW,337,0.0,0.4,83,0.00,,,0.00,WUHU21623XXSP,2013-01-17 09:22:00,
2013-01-17 04:27:00,62.8,57.5,29.46,SSW,202,0.0,0.4,83,0.00,,,0.00,WUHU21623XXSP,2013-01-17 09:27:00,
2013-01-17 04:32:00,62.8,57.5,29.45,SSW,202,0.0,0.0,83,0.00,,,0.00,WUHU21623XXSP,2013-01-17 09:32:00,
2013-01-17 04:37:00,62.8,57.5,29.45,SSW,202,0.0,0.0,83,0.00,,,0.00,WUHU21623XXSP,2013-01-17 09:37:00,
2013-01-17 04:42:00,63.0,57.7,29.45,SSW,202,0.0,0.0,83,0.00,,,0.00,WUHU21623XXSP,2013-01-17 09:42:00,
2013-01-17 04:47:00,63.1,57.9,29.45,SSW,202,0.0,0.0,83,0.00,,,0.00,WUHU21623XXSP,2013-01-17 09:47:00,
2013-01-17 04:52:00,63.1,57.9,29.45,SSW,202,0.0,0.0,83,0.00,,,0.00,WUHU21623XXSP,2013-01-17 09:52:00,
2013-01-17 04:58:00,63.1,57.5,29.45,SSW,202,0.0,0.0,82,0.00,,,0.00,WUHU21623XXSP,2013-01-17 09:58:00,
2013-01-17 05:03:00,63.1,57.5,29.45,SW,225,0.0,0.0,82,0.00,,,0.00,WUHU21623XXSP,2013-01-17 10:03:00,
2013-01-17 05:08:00,63.3,57.7,29.45,SSW,202,0.0,0.0,82,0.00,,,0.00,WUHU21623XXSP,2013-01-17 10:08:00,
2013-01-17 05:13:00,63.3,57.7,29.45,SSE,157,0.0,0.0,82,0.00,,,0.00,WUHU21623XXSP,2013-01-17 10:13:00,
2013-01-17 05:18:00,63.3,57.7,29.45,SSE,157,0.0,0.0,82,0.00,,,0.00,WUHU21623XXSP,2013-01-17 10:18:00,
2013-01-17 05:23:00,63.3,57.7,29.45,SSE,157,0.0,0.0,82,0.00,,,0.00,WUHU21623XXSP,2013-01-17 10:23:00,
2013-01-17 05:28:00,63.3,57.7,29.45,SSE,157,0.0,0.0,82,0.00,,,0.00,WUHU21623XXSP,2013-01-17 10:28:00,
2013-01-17 05:33:00,63.3,57.7,29.45,SSE,157,0.0,0.0,82,0.00,,,0.00,WUHU21623XXSP,2013-01-17 10:33:00,
2013-01-17 05:38:00,63.3,57.7,29.45,SSE,157,0.0,0.0,82,0.00,,,0.00,WUHU21623XXSP,2013-01-17 10:38:00,
2013-01-17 05:43:00,63.3,57.7,29.44,SSE,157,0.0,0.0,82,0.00,,,0.00,WUHU21623XXSP,2013-01-17 10:43:00,
2013-01-17 05:48:00,63.3,57.7,29.44,SSE,157,0.0,0.0,82,0.00,,,0.00,WUHU21623XXSP,2013-01-17 10:48:00,
2013-01-17 05:53:00,63.3,57.7,29.44,SSE,157,0.0,0.0,82,0.00,,,0.00,WUHU21623XXSP,2013-01-17 10:53:00,
2013-01-17 05:58:00,63.3,57.7,29.44,SSE,157,0.0,0.0,82,0.00,,,0.00,WUHU21623XXSP,2013-01-17 10:58:00,
2013-01-17 06:03:00,63.3,57.7,29.44,SSE,157,0.0,0.0,82,0.00,,,0.00,WUHU21623XXSP,2013-01-17 11:03:00,
2013-01-17 06:09:00,63.3,57.7,29.44,SSE,157,0.0,0.0,82,0.00,,,0.00,WUHU21623XXSP,2013-01-17 11:09:00,
2013-01-17 06:14:00,63.3,57.7,29.44,SSE,157,0.0,0.0,82,0.00,,,0.00,WUHU21623XXSP,2013-01-17 11:14:00,
2013-01-17 06:19:00,63.3,57.7,29.44,SSE,157,0.0,0.0,82,0.00,,,0.00,WUHU21623XXSP,2013-01-17 11:19:00,
2013-01-17 06:24:00,63.3,57.7,29.44,SE,135,0.0,0.0,82,0.00,,,0.00,WUHU21623XXSP,2013-01-17 11:24:00,
2013-01-17 06:29:00,63.1,57.5,29.44,SE,135,0.0,0.0,82,0.00,,,0.00,WUHU21623XXSP,2013-01-17 11:29:00,
2013-01-17 06:34:00,63.1,57.5,29.44,SE,135,0.0,0.0,82,0.00,,,0.00,WUHU21623XXSP,2013-01-17 11:34:00,
2013-01-17 06:39:00,63.1,57.5,29.44,SE,135,0.0,0.0,82,0.00,,,0.00,WUHU21623XXSP,2013-01-17 11:39:00,
2013-01-17 06:44:00,63.1,57.5,29.45,SE,135,0.0,0.0,82,0.00,,,0.00,WUHU21623XXSP,2013-01-17 11:44:00,
2013-01-17 06:49:00,63.1,57.5,29.44,SW,225,0.0,1.1,82,0.00,,,0.00,WUHU21623XXSP,2013-01-17 11:49:00,
2013-01-17 06:54:00,63.1,57.5,29.44,SW,225,0.0,1.1,82,0.00,,,0.00,WUHU21623XXSP,2013-01-17 11:54:00,
2013-01-17 06:59:00,63.1,57.5,29.45,SE,135,0.0,0.0,82,0.00,,,0.00,WUHU21623XXSP,2013-01-17 11:59:00,
2013-01-17 07:04:00,63.1,57.5,29.44,South,180,0.0,0.0,82,0.00,,,0.00,WUHU21623XXSP,2013-01-17 12:04:00,
2013-01-17 07:09:00,63.1,57.5,29.45,South,180,0.0,0.0,82,0.00,,,0.00,WUHU21623XXSP,2013-01-17 12:09:00,
2013-01-17 07:14:00,63.1,57.5,29.44,South,180,0.0,0.0,82,0.00,,,0.00,WUHU21623XXSP,2013-01-17 12:14:00,
2013-01-17 07:19:00,63.1,57.5,29.44,South,180,0.0,0.0,82,0.00,,,0.00,WUHU21623XXSP,2013-01-17 12:19:00,
2013-01-17 07:24:00,63.0,57.3,29.44,SSE,157,0.0,1.3,82,0.00,,,0.00,WUHU21623XXSP,2013-01-17 12:24:00,
2013-01-17 07:29:00,63.0,57.3,29.44,SSE,157,0.0,1.3,82,0.00,,,0.00,WUHU21623XXSP,2013-01-17 12:29:00,
2013-01-17 07:34:00,63.0,57.3,29.43,SSE,157,0.0,0.0,82,0.00,,,0.00,WUHU21623XXSP,2013-01-17 12:34:00,
2013-01-17 07:39:00,62.8,57.2,29.43,South,180,0.0,3.1,82,0.00,,,0.00,WUHU21623XXSP,2013-01-17 12:39:00,
2013-01-17 07:44:00,62.8,57.2,29.42,SE,135,1.8,3.8,82,0.00,,,0.00,WUHU21623XXSP,2013-01-17 12:44:00,
2013-01-17 07:49:00,62.8,57.2,29.42,SW,225,0.0,3.8,82,0.00,,,0.00,WUHU21623XXSP,2013-01-17 12:49:00,
2013-01-17 07:54:00,62.8,56.8,29.42,SE,135,0.0,3.6,81,0.00,,,0.00,WUHU21623XXSP,2013-01-17 12:54:00,
2013-01-17 07:59:00,62.8,56.8,29.42,SW,225,0.0,3.6,81,0.00,,,0.00,WUHU21623XXSP,2013-01-17 12:59:00,
2013-01-17 08:04:00,62.8,56.8,29.42,South,180,0.0,3.6,81,0.00,,,0.00,WUHU21623XXSP,2013-01-17 13:04:00,
2013-01-17 08:09:00,62.8,56.8,29.42,SW,225,0.0,0.0,81,0.00,,,0.00,WUHU21623XXSP,2013-01-17 13:09:00,
2013-01-17 08:14:00,62.8,56.8,29.42,SSE,157,0.0,0.0,81,0.00,,,0.00,WUHU21623XXSP,2013-01-17 13:14:00,
2013-01-17 08:19:00,62.8,56.8,29.42,SSE,157,0.0,0.0,81,0.00,,,0.00,WUHU21623XXSP,2013-01-17 13:19:00,
2013-01-17 08:24:00,62.8,56.8,29.42,SSE,157,0.0,3.6,81,0.00,,,0.00,WUHU21623XXSP,2013-01-17 13:24:00,
2013-01-17 08:29:00,62.8,56.8,29.43,South,180,5.6,7.4,81,0.00,,,0.00,WUHU21623XXSP,2013-01-17 13:29:00,
2013-01-17 08:34:00,62.8,56.8,29.43,SE,135,0.9,7.4,81,0.00,,,0.00,WUHU21623XXSP,2013-01-17 13:34:00,
2013-01-17 08:39:00,62.8,56.8,29.42,SSE,157,0.0,5.8,81,0.00,,,0.00,WUHU21623XXSP,2013-01-17 13:39:00,
2013-01-17 08:44:00,62.8,56.8,29.42,South,180,0.0,4.5,81,0.00,,,0.00,WUHU21623XXSP,2013-01-17 13:44:00,
2013-01-17 08:49:00,62.8,56.5,29.42,SSE,157,0.0,4.5,80,0.00,,,0.00,WUHU21623XXSP,2013-01-17 13:49:00,
2013-01-17 08:54:00,62.8,56.5,29.42,North,0,1.8,3.1,80,0.00,,,0.00,WUHU21623XXSP,2013-01-17 13:54:00,
2013-01-17 08:59:00,63.0,56.7,29.42,SSW,202,0.0,2.9,80,0.00,,,0.00,WUHU21623XXSP,2013-01-17 13:59:00,
2013-01-17 09:04:00,63.1,56.8,29.42,SSE,157,0.0,3.4,80,0.00,,,0.00,WUHU21623XXSP,2013-01-17 14:04:00,
2013-01-17 09:09:00,63.3,57.0,29.42,SSW,202,3.1,7.2,80,0.00,,,0.00,WUHU21623XXSP,2013-01-17 14:09:00,
2013-01-17 09:14:00,63.3,57.0,29.42,SW,225,2.5,7.2,80,0.00,,,0.00,WUHU21623XXSP,2013-01-17 14:14:00,
2013-01-17 09:19:00,63.5,57.2,29.41,SW,225,0.0,6.0,80,0.00,,,0.00,WUHU21623XXSP,2013-01-17 14:19:00,
2013-01-17 09:24:00,63.5,57.2,29.41,SE,135,0.0,6.0,80,0.00,,,0.00,WUHU21623XXSP,2013-01-17 14:24:00,
2013-01-17 09:29:00,63.7,57.4,29.41,SSE,157,0.0,6.9,80,0.00,,,0.00,WUHU21623XXSP,2013-01-17 14:29:00,
2013-01-17 09:34:00,63.7,57.4,29.41,SE,135,6.7,7.8,80,0.00,,,0.00,WUHU21623XXSP,2013-01-17 14:34:00,
2013-01-17 09:39:00,64.0,57.4,29.41,SSE,157,0.0,7.8,79,0.00,,,0.00,WUHU21623XXSP,2013-01-17 14:39:00,
2013-01-17 09:44:00,64.8,58.1,29.41,NNE,22,0.0,6.3,79,0.00,,,0.00,WUHU21623XXSP,2013-01-17 14:44:00,
2013-01-17 09:49:00,64.8,58.1,29.41,SE,135,0.0,6.3,79,0.00,,,0.00,WUHU21623XXSP,2013-01-17 14:49:00,
2013-01-17 09:54:00,65.1,58.4,29.41,WSW,247,0.0,7.4,79,0.00,,,0.00,WUHU21623XXSP,2013-01-17 14:54:00,
2013-01-17 09:59:00,65.5,59.2,29.40,SSE,157,0.0,7.4,80,0.00,,,0.00,WUHU21623XXSP,2013-01-17 14:59:00,
2013-01-17 10:05:00,65.8,60.2,29.41,SSW,202,3.1,3.6,82,0.00,,,0.00,WUHU21623XXSP,2013-01-17 15:05:00,
2013-01-17 10:10:00,66.0,60.7,29.40,SSW,202,0.0,5.6,83,0.00,,,0.00,WUHU21623XXSP,2013-01-17 15:10:00,
2013-01-17 10:15:00,66.0,61.3,29.40,SSE,157,0.0,5.8,85,0.00,,,0.00,WUHU21623XXSP,2013-01-17 15:15:00,
2013-01-17 10:20:00,66.2,62.3,29.39,SSE,157,1.3,5.8,87,0.00,,,0.00,WUHU21623XXSP,2013-01-17 15:20:00,
2013-01-17 10:25:00,66.6,62.9,29.38,SW,225,0.0,8.7,88,0.00,,,0.00,WUHU21623XXSP,2013-01-17 15:25:00,
2013-01-17 10:30:00,66.7,63.7,29.38,SE,135,1.3,8.7,90,0.00,,,0.00,WUHU21623XXSP,2013-01-17 15:30:00,
2013-01-17 10:35:00,67.5,64.7,29.38,SE,135,0.0,6.9,91,0.00,,,0.00,WUHU21623XXSP,2013-01-17 15:35:00,
2013-01-17 10:40:00,67.6,65.2,29.38,SSE,157,0.0,6.9,92,0.00,,,0.00,WUHU21623XXSP,2013-01-17 15:40:00,
2013-01-17 10:45:00,67.3,64.8,29.37,SSW,202,0.0,6.3,92,0.00,,,0.00,WUHU21623XXSP,2013-01-17 15:45:00,
2013-01-17 10:50:00,67.5,65.0,29.37,SSW,202,0.0,6.3,92,0.00,,,0.00,WUHU21623XXSP,2013-01-17 15:50:00,
2013-01-17 10:55:00,67.6,65.2,29.37,East,90,1.8,2.5,92,0.00,,,0.00,WUHU21623XXSP,2013-01-17 15:55:00,
2013-01-17 11:00:00,68.2,65.7,29.36,SSE,157,0.0,4.5,92,0.00,,,0.00,WUHU21623XXSP,2013-01-17 16:00:00,
2013-01-17 11:05:00,68.7,66.3,29.36,SW,225,2.5,4.5,92,0.00,,,0.00,WUHU21623XXSP,2013-01-17 16:05:00,
2013-01-17 11:10:00,69.6,66.6,29.35,SE,135,0.0,2.9,90,0.00,,,0.00,WUHU21623XXSP,2013-01-17 16:10:00,
2013-01-17 11:15:00,72.0,68.2,29.34,NE,45,2.5,4.9,88,0.00,,,0.00,WUHU21623XXSP,2013-01-17 16:15:00,
2013-01-17 11:20:00,74.1,69.0,29.34,SW,225,0.0,6.9,84,0.00,,,0.00,WUHU21623XXSP,2013-01-17 16:20:00,
2013-01-17 11:25:00,74.8,68.7,29.34,SE,135,0.0,6.9,81,0.00,,,0.00,WUHU21623XXSP,2013-01-17 16:25:00,
2013-01-17 11:30:00,73.0,67.2,29.34,SSW,202,0.4,6.9,82,0.00,,,0.00,WUHU21623XXSP,2013-01-17 16:30:00,
2013-01-17 11:35:00,71.2,65.8,29.34,ESE,112,0.4,6.9,83,0.00,,,0.00,WUHU21623XXSP,2013-01-17 16:35:00,
2013-01-17 11:40:00,70.3,65.6,29.34,SSW,202,1.3,6.9,85,0.00,,,0.00,WUHU21623XXSP,2013-01-17 16:40:00,
2013-01-17 11:45:00,69.6,65.2,29.33,SSW,202,0.7,3.6,86,0.00,,,0.00,WUHU21623XXSP,2013-01-17 16:45:00,
2013-01-17 11:50:00,69.3,65.2,29.33,ESE,112,0.0,6.3,87,0.00,,,0.00,WUHU21623XXSP,2013-01-17 16:50:00,
2013-01-17 11:55:00,68.7,64.7,29.32,NE,45,0.0,6.7,87,0.00,,,0.00,WUHU21623XXSP,2013-01-17 16:55:00,
2013-01-17 12:00:00,68.5,64.8,29.32,SE,135,0.0,6.7,88,0.00,,,0.00,WUHU21623XXSP,2013-01-17 17:00:00,
2013-01-17 12:05:00,68.4,64.6,29.32,South,180,0.9,6.5,88,0.00,,,0.00,WUHU21623XXSP,2013-01-17 17:05:00,
2013-01-17 12:10:00,68.2,64.8,29.31,SE,135,2.0,6.5,89,0.00,,,0.00,WUHU21623XXSP,2013-01-17 17:10:00,
2013-01-17 12:15:00,68.2,64.8,29.30,SE,135,0.0,4.5,89,0.00,,,0.00,WUHU21623XXSP,2013-01-17 17:15:00,
2013-01-17 12:20:00,68.0,64.6,29.30,SE,135,0.0,4.9,89,0.00,,,0.00,WUHU21623XXSP,2013-01-17 17:20:00,
2013-01-17 12:25:00,67.8,64.4,29.29,SW,225,3.8,6.5,89,0.00,,,0.00,WUHU21623XXSP,2013-01-17 17:25:00,
2013-01-17 12:30:00,67.3,63.9,29.29,NE,45,0.0,8.3,89,0.00,,,0.00,WUHU21623XXSP,2013-01-17 17:30:00,
2013-01-17 12:35:00,66.7,63.7,29.29,SW,225,0.4,8.3,90,0.00,,,0.00,WUHU21623XXSP,2013-01-17 17:35:00,
2013-01-17 12:40:00,66.2,63.4,29.29,SW,225,2.9,6.0,91,0.00,,,0.00,WUHU21623XXSP,2013-01-17 17:40:00,
2013-01-17 12:45:00,65.8,63.1,29.29,WNW,292,3.4,10.5,91,0.00,,,0.00,WUHU21623XXSP,2013-01-17 17:45:00,
2013-01-17 12:50:00,65.3,62.6,29.29,NW,315,0.0,10.5,91,0.00,,,0.00,WUHU21623XXSP,2013-01-17 17:50:00,
2013-01-17 12:55:00,63.5,60.6,29.30,NW,315,1.3,5.8,90,0.00,,,0.00,WUHU21623XXSP,2013-01-17 17:55:00,
2013-01-17 13:00:00,62.2,59.4,29.30,ENE,67,0.0,5.8,90,0.00,,,0.00,WUHU21623XXSP,2013-01-17 18:00:00,
2013-01-17 13:05:00,60.6,57.7,29.31,West,270,2.2,5.6,90,0.00,,,0.00,WUHU21623XXSP,2013-01-17 18:05:00,
2013-01-17 13:10:00,59.7,57.1,29.31,SW,225,0.0,5.6,91,0.00,,,0.00,WUHU21623XXSP,2013-01-17 18:10:00,
2013-01-17 13:15:00,59.2,56.2,29.30,WSW,247,0.0,5.6,91,0.00,,,0.00,WUHU21623XXSP,2013-01-17 18:15:00,
2013-01-17 13:20:00,58.3,55.7,29.30,North,0,0.0,5.6,91,0.00,,,0.00,WUHU21623XXSP,2013-01-17 18:20:00,
2013-01-17 13:25:00,57.9,55.3,29.30,NNW,337,1.1,4.3,91,0.00,,,0.00,WUHU21623XXSP,2013-01-17 18:25:00,
2013-01-17 13:30:00,57.4,54.8,29.30,WSW,247,1.3,4.5,91,0.00,,,0.00,WUHU21623XXSP,2013-01-17 18:30:00,
2013-01-17 13:35:00,57.0,54.7,29.30,WSW,247,2.5,4.5,92,0.00,,,0.00,WUHU21623XXSP,2013-01-17 18:35:00,
2013-01-17 13:40:00,56.5,54.2,29.30,WSW,247,4.0,4.5,92,0.00,,,0.00,WUHU21623XXSP,2013-01-17 18:40:00,
2013-01-17 13:46:00,56.1,53.8,29.31,NW,315,3.8,6.5,92,0.00,,,0.00,WUHU21623XXSP,2013-01-17 18:46:00,
2013-01-17 13:51:00,55.6,53.3,29.31,NNW,337,0.0,6.5,92,0.02,,,0.02,WUHU21623XXSP,2013-01-17 18:51:00,
2013-01-17 13:56:00,55.0,52.7,29.32,West,270,1.8,4.9,92,0.02,,,0.02,WUHU21623XXSP,2013-01-17 18:56:00,
2013-01-17 14:01:00,54.3,52.0,29.32,NW,315,3.1,5.8,92,0.02,,,0.02,WUHU21623XXSP,2013-01-17 19:01:00,
2013-01-17 14:06:00,54.0,51.7,29.32,West,270,0.0,5.8,92,0.02,,,0.02,WUHU21623XXSP,2013-01-17 19:06:00,
2013-01-17 14:11:00,53.4,51.1,29.32,WSW,247,3.1,5.6,92,0.02,,,0.02,WUHU21623XXSP,2013-01-17 19:11:00,
2013-01-17 14:16:00,53.4,51.1,29.32,West,270,0.0,5.4,92,0.02,,,0.02,WUHU21623XXSP,2013-01-17 19:16:00,
2013-01-17 14:21:00,53.2,50.9,29.32,WNW,292,0.0,4.0,92,0.02,,,0.02,WUHU21623XXSP,2013-01-17 19:21:00,
2013-01-17 14:26:00,52.9,50.6,29.33,NW,315,3.4,6.7,92,0.04,,,0.04,WUHU21623XXSP,2013-01-17 19:26:00,
2013-01-17 14:31:00,52.5,50.2,29.33,NW,315,0.0,6.7,92,0.04,,,0.04,WUHU21623XXSP,2013-01-17 19:31:00,
2013-01-17 14:36:00,52.2,49.9,29.33,NNW,337,0.9,5.1,92,0.04,,,0.04,WUHU21623XXSP,2013-01-17 19:36:00,
2013-01-17 14:41:00,51.4,49.1,29.34,West,270,0.0,10.5,92,0.06,,,0.06,WUHU21623XXSP,2013-01-17 19:41:00,
2013-01-17 14:46:00,50.9,48.6,29.34,West,270,0.0,10.5,92,0.06,,,0.06,WUHU21623XXSP,2013-01-17 19:46:00,
2013-01-17 14:51:00,50.5,48.2,29.34,South,180,0.0,3.4,92,0.06,,,0.06,WUHU21623XXSP,2013-01-17 19:51:00,
2013-01-17 14:56:00,50.2,47.9,29.34,West,270,0.0,2.7,92,0.06,,,0.00,WUHU21623XXSP,2013-01-17 19:56:00,
2013-01-17 15:01:00,49.8,47.5,29.34,West,270,1.6,5.1,92,0.06,,,0.00,WUHU21623XXSP,2013-01-17 20:01:00,
2013-01-17 15:06:00,49.5,47.2,29.34,SW,225,0.0,5.1,92,0.06,,,0.00,WUHU21623XXSP,2013-01-17 20:06:00,
2013-01-17 15:11:00,49.1,46.9,29.35,South,180,0.0,3.6,92,0.06,,,0.00,WUHU21623XXSP,2013-01-17 20:11:00,
2013-01-17 15:16:00,48.9,46.7,29.35,WNW,292,0.0,2.2,92,0.08,,,0.02,WUHU21623XXSP,2013-01-17 20:16:00,
2013-01-17 15:21:00,48.9,46.7,29.34,WSW,247,1.8,3.4,92,0.10,,,0.04,WUHU21623XXSP,2013-01-17 20:21:00,
2013-01-17 15:26:00,48.9,46.7,29.35,West,270,1.3,3.4,92,0.08,,,0.04,WUHU21623XXSP,2013-01-17 20:26:00,
2013-01-17 15:31:00,49.1,46.9,29.35,NW,315,0.0,3.1,92,0.08,,,0.04,WUHU21623XXSP,2013-01-17 20:31:00,
2013-01-17 15:36:00,53.2,50.9,29.35,SW,225,0.0,3.1,92,0.06,,,0.04,WUHU21623XXSP,2013-01-17 20:36:00,
2013-01-17 15:41:00,53.8,50.0,29.35,WSW,247,0.0,2.7,87,0.06,,,0.04,WUHU21623XXSP,2013-01-17 20:41:00,
2013-01-17 15:46:00,53.2,49.1,29.35,West,270,0.0,2.7,86,0.06,,,0.04,WUHU21623XXSP,2013-01-17 20:46:00,
2013-01-17 15:51:00,51.6,47.5,29.35,West,270,0.0,1.8,86,0.04,,,0.04,WUHU21623XXSP,2013-01-17 20:51:00,
2013-01-17 15:56:00,51.4,47.3,29.35,WSW,247,0.9,4.0,86,0.04,,,0.04,WUHU21623XXSP,2013-01-17 20:56:00,
2013-01-17 16:01:00,51.8,47.7,29.35,West,270,0.0,4.0,86,0.04,,,0.04,WUHU21623XXSP,2013-01-17 21:01:00,
2013-01-17 16:06:00,52.5,48.1,29.36,NW,315,1.8,2.0,85,0.04,,,0.04,WUHU21623XXSP,2013-01-17 21:06:00,
2013-01-17 16:11:00,53.8,48.4,29.36,West,270,0.0,2.0,82,0.02,,,0.04,WUHU21623XXSP,2013-01-17 21:11:00,
2013-01-17 16:16:00,52.2,47.1,29.37,North,0,0.0,4.0,83,0.00,,,0.04,WUHU21623XXSP,2013-01-17 21:16:00,
2013-01-17 16:21:00,50.5,45.2,29.37,NNW,337,0.0,4.7,82,0.00,,,0.04,WUHU21623XXSP,2013-01-17 21:21:00,
2013-01-17 16:26:00,49.6,44.3,29.37,WNW,292,0.9,4.7,82,0.00,,,0.04,WUHU21623XXSP,2013-01-17 21:26:00,
2013-01-17 16:31:00,48.9,43.9,29.37,WNW,292,3.6,4.0,83,0.00,,,0.04,WUHU21623XXSP,2013-01-17 21:31:00,
2013-01-17 16:36:00,48.4,43.4,29.37,North,0,0.0,4.0,83,0.00,,,0.04,WUHU21623XXSP,2013-01-17 21:36:00,
2013-01-17 16:41:00,48.0,43.1,29.38,NE,45,0.0,6.9,83,0.00,,,0.04,WUHU21623XXSP,2013-01-17 21:41:00,
2013-01-17 16:46:00,47.7,43.0,29.38,West,270,0.0,6.9,84,0.00,,,0.04,WUHU21623XXSP,2013-01-17 21:46:00,
2013-01-17 16:51:00,47.7,43.0,29.38,North,0,0.0,5.1,84,0.00,,,0.04,WUHU21623XXSP,2013-01-17 21:51:00,
2013-01-17 16:56:00,47.5,42.9,29.38,North,0,3.1,5.1,84,0.00,,,0.04,WUHU21623XXSP,2013-01-17 21:56:00,
2013-01-17 17:01:00,47.5,42.9,29.39,NW,315,0.0,3.1,84,0.00,,,0.04,WUHU21623XXSP,2013-01-17 22:01:00,
2013-01-17 17:06:00,47.5,42.9,29.39,NW,315,3.1,3.1,84,0.00,,,0.04,WUHU21623XXSP,2013-01-17 22:06:00,
2013-01-17 17:11:00,47.3,42.7,29.40,WNW,292,0.0,3.1,84,0.00,,,0.04,WUHU21623XXSP,2013-01-17 22:11:00,
2013-01-17 17:16:00,47.1,42.2,29.39,WNW,292,4.9,4.9,83,0.00,,,0.04,WUHU21623XXSP,2013-01-17 22:16:00,
2013-01-17 17:21:00,47.1,42.2,29.40,NW,315,0.0,4.9,83,0.00,,,0.04,WUHU21623XXSP,2013-01-17 22:21:00,
2013-01-17 17:26:00,46.8,41.6,29.40,West,270,0.0,8.1,82,0.00,,,0.04,WUHU21623XXSP,2013-01-17 22:26:00,
2013-01-17 17:31:00,46.2,41.4,29.41,WNW,292,3.4,8.1,83,0.00,,,0.04,WUHU21623XXSP,2013-01-17 22:31:00,
2013-01-17 17:36:00,46.0,41.2,29.41,NW,315,0.0,3.6,83,0.00,,,0.04,WUHU21623XXSP,2013-01-17 22:36:00,
2013-01-17 17:41:00,45.5,40.7,29.41,NW,315,1.8,3.6,83,0.00,,,0.04,WUHU21623XXSP,2013-01-17 22:41:00,
2013-01-17 17:46:00,45.0,40.4,29.42,WSW,247,4.0,4.0,84,0.00,,,0.04,WUHU21623XXSP,2013-01-17 22:46:00,
2013-01-17 17:51:00,44.6,40.4,29.42,NW,315,0.0,4.0,85,0.00,,,0.04,WUHU21623XXSP,2013-01-17 22:51:00,
2013-01-17 17:56:00,44.4,40.2,29.42,ESE,112,0.0,5.6,85,0.00,,,0.04,WUHU21623XXSP,2013-01-17 22:56:00,
2013-01-17 18:01:00,44.4,40.5,29.43,ESE,112,0.0,5.6,86,0.00,,,0.04,WUHU21623XXSP,2013-01-17 23:01:00,
2013-01-17 18:06:00,44.4,40.5,29.44,NNE,22,0.9,3.1,86,0.00,,,0.04,WUHU21623XXSP,2013-01-17 23:06:00,
2013-01-17 18:11:00,44.4,40.5,29.44,WSW,247,3.8,6.7,86,0.00,,,0.04,WUHU21623XXSP,2013-01-17 23:11:00,
2013-01-17 18:17:00,44.4,40.2,29.44,WNW,292,1.1,6.7,85,0.00,,,0.04,WUHU21623XXSP,2013-01-17 23:17:00,
2013-01-17 18:22:00,44.4,40.2,29.45,NNW,337,0.0,3.6,85,0.00,,,0.04,WUHU21623XXSP,2013-01-17 23:22:00,
2013-01-17 18:27:00,44.4,40.2,29.45,NW,315,0.0,3.6,85,0.00,,,0.04,WUHU21623XXSP,2013-01-17 23:27:00,
2013-01-17 18:32:00,44.1,39.8,29.46,NW,315,0.0,3.6,85,0.00,,,0.04,WUHU21623XXSP,2013-01-17 23:32:00,
2013-01-17 18:37:00,43.7,39.8,29.46,NW,315,0.0,3.6,86,0.00,,,0.04,WUHU21623XXSP,2013-01-17 23:37:00,
2013-01-17 18:42:00,43.3,39.4,29.46,NW,315,0.0,2.7,86,0.00,,,0.04,WUHU21623XXSP,2013-01-17 23:42:00,
2013-01-17 18:47:00,43.3,39.7,29.47,NW,315,0.0,2.5,87,0.00,,,0.04,WUHU21623XXSP,2013-01-17 23:47:00,
2013-01-17 18:52:00,43.3,39.7,29.47,NW,315,0.0,3.1,87,0.00,,,0.04,WUHU21623XXSP,2013-01-17 23:52:00,
2013-01-17 18:57:00,43.3,39.7,29.49,NW,315,2.0,4.5,87,0.00,,,0.04,WUHU21623XXSP,2013-01-17 23:57:00,
2013-01-17 19:02:00,43.5,39.6,29.49,North,0,0.7,6.5,86,0.00,,,0.04,WUHU21623XXSP,2013-01-18 00:02:00,
2013-01-17 19:07:00,43.7,39.8,29.49,NNW,337,0.0,6.5,86,0.00,,,0.04,WUHU21623XXSP,2013-01-18 00:07:00,
2013-01-17 19:12:00,43.9,40.0,29.50,NNW,337,1.8,5.6,86,0.00,,,0.04,WUHU21623XXSP,2013-01-18 00:12:00,
2013-01-17 19:17:00,43.9,39.6,29.51,NE,45,0.2,4.5,85,0.00,,,0.04,WUHU21623XXSP,2013-01-18 00:17:00,
2013-01-17 19:22:00,43.7,39.5,29.52,North,0,0.9,4.9,85,0.00,,,0.04,WUHU21623XXSP,2013-01-18 00:22:00,
2013-01-17 19:27:00,43.7,39.2,29.52,NNE,22,0.0,4.9,84,0.00,,,0.04,WUHU21623XXSP,2013-01-18 00:27:00,
2013-01-17 19:32:00,43.7,39.2,29.53,NW,315,0.0,4.0,84,0.00,,,0.04,WUHU21623XXSP,2013-01-18 00:32:00,
2013-01-17 19:37:00,43.5,39.0,29.53,NW,315,3.1,4.0,84,0.00,,,0.04,WUHU21623XXSP,2013-01-18 00:37:00,
2013-01-17 19:42:00,43.5,39.0,29.54,NNW,337,2.5,5.4,84,0.00,,,0.04,WUHU21623XXSP,2013-01-18 00:42:00,
2013-01-17 19:47:00,43.3,38.8,29.55,NNW,337,2.5,5.6,84,0.00,,,0.04,WUHU21623XXSP,2013-01-18 00:47:00,
2013-01-17 19:52:00,43.3,38.8,29.55,NNW,337,1.8,5.6,84,0.00,,,0.04,WUHU21623XXSP,2013-01-18 00:52:00,
2013-01-17 19:57:00,43.3,38.8,29.55,NE,45,0.0,4.7,84,0.00,,,0.04,WUHU21623XXSP,2013-01-18 00:57:00,
2013-01-17 20:02:00,43.2,38.6,29.56,NNE,22,1.6,4.7,84,0.00,,,0.04,WUHU21623XXSP,2013-01-18 01:02:00,
2013-01-17 20:07:00,43.2,38.6,29.56,NNE,22,0.0,3.6,84,0.00,,,0.04,WUHU21623XXSP,2013-01-18 01:07:00,
2013-01-17 20:12:00,43.0,38.8,29.56,NNE,22,0.0,2.9,85,0.00,,,0.04,WUHU21623XXSP,2013-01-18 01:12:00,
2013-01-17 20:17:00,43.0,38.8,29.57,NNE,22,0.0,2.9,85,0.00,,,0.04,WUHU21623XXSP,2013-01-18 01:17:00,
2013-01-17 20:22:00,43.0,38.4,29.58,NE,45,0.0,4.3,84,0.00,,,0.04,WUHU21623XXSP,2013-01-18 01:22:00,
2013-01-17 20:27:00,43.0,38.8,29.58,NNW,337,0.0,4.3,85,0.00,,,0.04,WUHU21623XXSP,2013-01-18 01:27:00,
2013-01-17 20:32:00,42.8,38.6,29.59,North,0,0.0,3.4,85,0.00,,,0.04,WUHU21623XXSP,2013-01-18 01:32:00,
2013-01-17 20:37:00,42.6,38.4,29.59,NNW,337,0.0,3.4,85,0.00,,,0.04,WUHU21623XXSP,2013-01-18 01:37:00,
2013-01-17 20:42:00,42.6,38.4,29.60,NNW,337,0.0,4.5,85,0.00,,,0.04,WUHU21623XXSP,2013-01-18 01:42:00,
2013-01-17 20:47:00,42.6,38.4,29.60,NNW,337,0.7,4.7,85,0.00,,,0.04,WUHU21623XXSP,2013-01-18 01:47:00,
2013-01-17 20:52:00,42.6,38.4,29.60,North,0,2.0,4.7,85,0.00,,,0.04,WUHU21623XXSP,2013-01-18 01:52:00,
2013-01-17 20:57:00,42.6,38.4,29.60,NNE,22,1.6,4.0,85,0.00,,,0.04,WUHU21623XXSP,2013-01-18 01:57:00,
2013-01-17 21:02:00,42.6,38.4,29.60,WNW,292,2.0,4.0,85,0.00,,,0.04,WUHU21623XXSP,2013-01-18 02:02:00,
2013-01-17 21:07:00,42.6,38.4,29.61,North,0,2.9,4.5,85,0.00,,,0.04,WUHU21623XXSP,2013-01-18 02:07:00,
2013-01-17 21:12:00,42.4,38.2,29.61,North,0,3.4,4.9,85,0.00,,,0.04,WUHU21623XXSP,2013-01-18 02:12:00,
2013-01-17 21:17:00,42.4,38.2,29.62,North,0,2.9,4.9,85,0.00,,,0.04,WUHU21623XXSP,2013-01-18 02:17:00,
2013-01-17 21:22:00,42.4,38.2,29.62,NNW,337,2.2,6.7,85,0.00,,,0.04,WUHU21623XXSP,2013-01-18 02:22:00,
2013-01-17 21:27:00,42.4,38.2,29.62,North,0,2.9,6.7,85,0.00,,,0.04,WUHU21623XXSP,2013-01-18 02:27:00,
2013-01-17 21:32:00,42.4,38.5,29.61,North,0,4.7,8.5,86,0.00,,,0.04,WUHU21623XXSP,2013-01-18 02:32:00,
2013-01-17 21:37:00,42.4,38.5,29.61,NNE,22,4.0,8.5,86,0.00,,,0.04,WUHU21623XXSP,2013-01-18 02:37:00,
2013-01-17 21:42:00,42.4,38.5,29.62,North,0,4.7,5.6,86,0.00,,,0.04,WUHU21623XXSP,2013-01-18 02:42:00,
2013-01-17 21:47:00,42.4,38.5,29.62,NE,45,2.0,7.2,86,0.00,,,0.04,WUHU21623XXSP,2013-01-18 02:47:00,
2013-01-17 21:53:00,42.4,38.8,29.62,North,0,3.8,7.2,87,0.00,,,0.04,WUHU21623XXSP,2013-01-18 02:53:00,
2013-01-17 21:58:00,42.4,38.8,29.62,North,0,2.2,8.5,87,0.00,,,0.04,WUHU21623XXSP,2013-01-18 02:58:00,
2013-01-17 22:03:00,42.6,39.0,29.62,North,0,4.0,8.5,87,0.00,,,0.04,WUHU21623XXSP,2013-01-18 03:03:00,
2013-01-17 22:08:00,42.6,39.0,29.63,North,0,2.5,5.1,87,0.00,,,0.04,WUHU21623XXSP,2013-01-18 03:08:00,
2013-01-17 22:13:00,42.6,39.0,29.62,NNE,22,0.9,8.7,87,0.00,,,0.04,WUHU21623XXSP,2013-01-18 03:13:00,
2013-01-17 22:18:00,42.4,38.8,29.62,NE,45,4.9,8.7,87,0.00,,,0.04,WUHU21623XXSP,2013-01-18 03:18:00,
2013-01-17 22:23:00,42.1,38.2,29.63,North,0,4.5,8.1,86,0.00,,,0.04,WUHU21623XXSP,2013-01-18 03:23:00,
2013-01-17 22:28:00,41.7,38.1,29.63,NNE,22,2.2,8.3,87,0.00,,,0.04,WUHU21623XXSP,2013-01-18 03:28:00,
2013-01-17 22:33:00,41.5,37.9,29.64,North,0,0.0,8.3,87,0.00,,,0.04,WUHU21623XXSP,2013-01-18 03:33:00,
2013-01-17 22:38:00,41.2,37.9,29.64,NE,45,2.2,5.6,88,0.00,,,0.04,WUHU21623XXSP,2013-01-18 03:38:00,
2013-01-17 22:43:00,41.0,37.7,29.65,NE,45,0.0,8.7,88,0.00,,,0.04,WUHU21623XXSP,2013-01-18 03:43:00,
2013-01-17 22:48:00,40.8,37.5,29.65,NE,45,4.3,8.7,88,0.00,,,0.04,WUHU21623XXSP,2013-01-18 03:48:00,
2013-01-17 22:53:00,40.8,37.5,29.65,NE,45,0.0,7.8,88,0.00,,,0.04,WUHU21623XXSP,2013-01-18 03:53:00,
2013-01-17 22:58:00,41.0,37.7,29.67,NNE,22,1.8,8.3,88,0.00,,,0.04,WUHU21623XXSP,2013-01-18 03:58:00,
2013-01-17 23:03:00,41.2,38.2,29.67,North,0,3.8,8.3,89,0.00,,,0.04,WUHU21623XXSP,2013-01-18 04:03:00,
2013-01-17 23:08:00,41.2,38.2,29.68,NE,45,4.0,7.2,89,0.00,,,0.04,WUHU21623XXSP,2013-01-18 04:08:00,
2013-01-17 23:13:00,41.4,38.4,29.69,North,0,2.9,7.2,89,0.00,,,0.04,WUHU21623XXSP,2013-01-18 04:13:00,
2013-01-17 23:18:00,41.5,38.2,29.70,North,0,4.9,6.5,88,0.00,,,0.04,WUHU21623XXSP,2013-01-18 04:18:00,
2013-01-17 23:23:00,41.5,38.5,29.70,NE,45,4.3,6.5,89,0.00,,,0.04,WUHU21623XXSP,2013-01-18 04:23:00,
2013-01-17 23:28:00,41.5,38.2,29.71,ENE,67,0.0,6.7,88,0.00,,,0.04,WUHU21623XXSP,2013-01-18 04:28:00,
2013-01-17 23:33:00,41.5,38.5,29.71,North,0,5.6,6.7,89,0.00,,,0.04,WUHU21623XXSP,2013-01-18 04:33:00,
2013-01-17 23:38:00,41.7,38.7,29.72,NNW,337,5.1,10.1,89,0.00,,,0.04,WUHU21623XXSP,2013-01-18 04:38:00,
2013-01-17 23:43:00,41.7,38.7,29.72,ESE,112,0.0,10.1,89,0.00,,,0.04,WUHU21623XXSP,2013-01-18 04:43:00,
2013-01-17 23:48:00,41.7,38.7,29.72,NNE,22,3.1,7.2,89,0.00,,,0.04,WUHU21623XXSP,2013-01-18 04:48:00,
2013-01-17 23:53:00,41.5,38.5,29.73,NNE,22,5.6,10.3,89,0.00,,,0.04,WUHU21623XXSP,2013-01-18 04:53:00,
2013-01-17 23:58:00,41.5,38.5,29.73,NNE,22,3.4,10.3,89,0.00,,,0.04,WUHU21623XXSP,2013-01-18 04:58:00,